Time;durP1;ratioP1;P1;durP2;ratioP2;P2;SDS_P1;SDS_P2;PMS_P1;PMS_P2;Temp;Humidity;BMP_temperature;BMP_pressure;BME280_temperature;BME280_humidity;BME280_pressure;Samples;Min_cycle;Max_cycle;Signal;HPM_P1;HPM_P2
2023/08/21 00:02:05;;;;;;;20.52;4.10;;;;;;;;;;5035433;28;20052;-74
2023/08/21 00:04:31;;;;;;;19.00;3.95;;;;;;;;;;5035227;28;20087;-73
2023/08/21 00:06:57;;;;;;;16.65;4.40;;;;;;;;;;5035378;28;20033;-74
2023/08/21 00:09:23;;;;;;;22.10;3.90;;;;;;;;;;5035360;28;20028;-75
2023/08/21 00:11:49;;;;;;;16.17;4.15;;;;;;;;;;5035192;28;20013;-75
2023/08/21 00:14:15;;;;;;;19.00;4.78;;;;;;;;;;5035572;28;20037;-75
2023/08/21 00:16:41;;;;;;;14.65;3.58;;;;;;;;;;5036334;28;20083;-75
2023/08/21 00:19:07;;;;;;;18.38;4.55;;;;;;;;;;5036737;28;20120;-74
2023/08/21 00:21:33;;;;;;;18.70;4.43;;;;;;;;;;5037080;28;20029;-74
2023/08/21 00:23:59;;;;;;;18.95;4.82;;;;;;;;;;5035091;28;20021;-76
2023/08/21 00:26:25;;;;;;;16.40;4.20;;;;;;;;;;5035040;28;20469;-73
2023/08/21 00:28:51;;;;;;;15.23;3.67;;;;;;;;;;5034968;28;20028;-74
2023/08/21 00:31:17;;;;;;;17.73;3.80;;;;;;;;;;5035013;28;20025;-75
2023/08/21 00:33:43;;;;;;;22.63;4.00;;;;;;;;;;5034741;28;20021;-72
2023/08/21 00:36:09;;;;;;;16.45;4.35;;;;;;;;;;5035377;28;20033;-73
2023/08/21 00:38:35;;;;;;;15.13;4.35;;;;;;;;;;5034557;28;20030;-73
2023/08/21 00:41:01;;;;;;;18.67;4.78;;;;;;;;;;5035238;28;20037;-74
2023/08/21 00:43:27;;;;;;;14.82;4.00;;;;;;;;;;5034552;28;20037;-74
2023/08/21 00:45:53;;;;;;;21.30;4.30;;;;;;;;;;5035069;28;20384;-72
2023/08/21 00:48:20;;;;;;;12.93;4.03;;;;;;;;;;5034641;28;20494;-72
2023/08/21 00:50:46;;;;;;;19.77;3.95;;;;;;;;;;5035043;28;20469;-75
2023/08/21 00:53:12;;;;;;;15.98;4.57;;;;;;;;;;5034491;28;20021;-75
2023/08/21 00:55:39;;;;;;;14.60;3.80;;;;;;;;;;5034759;28;20030;-74
2023/08/21 00:58:05;;;;;;;15.38;3.97;;;;;;;;;;5033512;28;20495;-73
2023/08/21 01:00:31;;;;;;;10.30;4.00;;;;;;;;;;5034502;28;20380;-73
2023/08/21 01:02:57;;;;;;;22.48;5.07;;;;;;;;;;5035528;28;20418;-74
2023/08/21 01:05:23;;;;;;;13.55;4.15;;;;;;;;;;5034396;28;20033;-74
2023/08/21 01:07:54;;;;;;;14.25;4.13;;;;;;;;;;5034252;28;20030;-74
2023/08/21 01:10:23;;;;;;;21.92;4.70;;;;;;;;;;5035951;28;20057;-73
2023/08/21 01:13:10;;;;;;;17.60;4.22;;;;;;;;;;5033914;28;20112;-73
2023/08/21 01:15:37;;;;;;;14.63;4.60;;;;;;;;;;5034203;28;20048;-73
2023/08/21 01:18:03;;;;;;;16.20;4.68;;;;;;;;;;5034267;28;20108;-73
2023/08/21 01:20:30;;;;;;;18.08;4.47;;;;;;;;;;5034366;28;20025;-73
2023/08/21 01:22:55;;;;;;;13.18;4.03;;;;;;;;;;5034058;28;20159;-74
2023/08/21 01:25:21;;;;;;;17.25;4.35;;;;;;;;;;5034172;28;20112;-75
2023/08/21 01:27:49;;;;;;;13.88;4.43;;;;;;;;;;5034339;28;20344;-74
2023/08/21 01:30:16;;;;;;;14.25;4.68;;;;;;;;;;5034571;28;20479;-73
2023/08/21 01:32:41;;;;;;;12.30;4.82;;;;;;;;;;5031321;28;20029;-73
2023/08/21 01:35:09;;;;;;;17.05;4.88;;;;;;;;;;5034016;28;20171;-73
2023/08/21 01:37:36;;;;;;;18.52;5.15;;;;;;;;;;5049509;28;20029;-74
2023/08/21 01:40:02;;;;;;;15.27;5.22;;;;;;;;;;5049882;28;20435;-74
2023/08/21 01:42:28;;;;;;;21.42;5.45;;;;;;;;;;5049541;28;20064;-74
2023/08/21 01:44:54;;;;;;;17.88;5.60;;;;;;;;;;5037169;28;20081;-74
2023/08/21 01:47:20;;;;;;;15.77;5.05;;;;;;;;;;5035258;28;20043;-74
2023/08/21 01:49:46;;;;;;;10.93;5.07;;;;;;;;;;5033596;28;20558;-73
2023/08/21 01:52:12;;;;;;;20.52;5.93;;;;;;;;;;5043659;28;20113;-72
2023/08/21 01:54:38;;;;;;;21.75;5.60;;;;;;;;;;5052935;28;20032;-73
2023/08/21 01:57:05;;;;;;;14.00;6.03;;;;;;;;;;5053220;28;20029;-73
2023/08/21 01:59:31;;;;;;;15.40;5.22;;;;;;;;;;5054342;28;20056;-75
2023/08/21 02:01:57;;;;;;;18.42;5.55;;;;;;;;;;5052406;28;20032;-75
2023/08/21 02:04:23;;;;;;;20.42;5.13;;;;;;;;;;5053314;28;20486;-73
2023/08/21 02:06:49;;;;;;;17.95;6.32;;;;;;;;;;5052901;28;20033;-73
2023/08/21 02:09:15;;;;;;;19.55;5.30;;;;;;;;;;5052476;28;20155;-73
2023/08/21 02:11:41;;;;;;;17.17;5.55;;;;;;;;;;5052752;28;20554;-73
2023/08/21 02:14:07;;;;;;;20.33;5.53;;;;;;;;;;5036295;28;20041;-74
2023/08/21 02:16:33;;;;;;;17.33;5.80;;;;;;;;;;5033142;28;20420;-73
2023/08/21 02:18:59;;;;;;;13.35;4.47;;;;;;;;;;5032482;28;20036;-72
2023/08/21 02:21:25;;;;;;;16.88;5.70;;;;;;;;;;5035899;28;20223;-74
2023/08/21 02:23:51;;;;;;;17.67;4.47;;;;;;;;;;5051893;28;20537;-72
2023/08/21 02:26:19;;;;;;;17.10;4.10;;;;;;;;;;5052565;28;20029;-74
2023/08/21 02:28:46;;;;;;;17.65;5.50;;;;;;;;;;5052732;28;20289;-77
2023/08/21 02:31:12;;;;;;;17.58;5.10;;;;;;;;;;5052790;28;20029;-73
2023/08/21 02:33:38;;;;;;;15.50;6.53;;;;;;;;;;5052138;28;20083;-73
2023/08/21 02:36:07;;;;;;;21.27;6.18;;;;;;;;;;5052486;28;20025;-73
2023/08/21 02:38:33;;;;;;;17.42;5.55;;;;;;;;;;5052294;28;20509;-73
2023/08/21 02:40:59;;;;;;;20.95;5.53;;;;;;;;;;5053530;28;20033;-73
2023/08/21 02:43:24;;;;;;;15.38;4.95;;;;;;;;;;5053965;28;20079;-74
2023/08/21 02:45:50;;;;;;;19.13;6.38;;;;;;;;;;5053600;28;20028;-74
2023/08/21 02:48:17;;;;;;;16.88;5.70;;;;;;;;;;5054434;28;20483;-74
2023/08/21 02:50:43;;;;;;;18.38;5.90;;;;;;;;;;5054247;28;20021;-74
2023/08/21 02:53:09;;;;;;;22.20;6.45;;;;;;;;;;5045917;28;20515;-74
2023/08/21 02:55:35;;;;;;;21.77;6.22;;;;;;;;;;5032284;28;20419;-73
2023/08/21 02:58:01;;;;;;;18.75;5.95;;;;;;;;;;5043262;28;20032;-77
2023/08/21 03:00:27;;;;;;;16.48;5.70;;;;;;;;;;5033370;28;20033;-75
2023/08/21 03:02:53;;;;;;;23.30;7.15;;;;;;;;;;5033794;28;20053;-76
2023/08/21 03:05:19;;;;;;;16.42;6.85;;;;;;;;;;5033839;28;20092;-74
2023/08/21 03:07:45;;;;;;;19.38;7.05;;;;;;;;;;5034073;28;20025;-73
2023/08/21 03:10:11;;;;;;;17.70;6.72;;;;;;;;;;5031672;28;20096;-75
2023/08/21 03:12:37;;;;;;;18.50;6.43;;;;;;;;;;5031836;28;20022;-73
2023/08/21 03:15:03;;;;;;;19.80;6.72;;;;;;;;;;5031939;28;20048;-73
2023/08/21 03:17:29;;;;;;;22.17;6.95;;;;;;;;;;5032064;28;20091;-76
2023/08/21 03:19:55;;;;;;;18.27;7.13;;;;;;;;;;5031679;28;20029;-77
2023/08/21 03:22:21;;;;;;;21.02;7.53;;;;;;;;;;5047214;28;20491;-78
2023/08/21 03:24:47;;;;;;;25.52;7.95;;;;;;;;;;5033598;28;20044;-76
2023/08/21 03:27:16;;;;;;;17.70;6.93;;;;;;;;;;5031633;28;20048;-76
2023/08/21 03:29:48;;;;;;;23.85;8.10;;;;;;;;;;5030044;28;20025;-76
2023/08/21 03:32:14;;;;;;;20.95;7.03;;;;;;;;;;5033579;28;20072;-76
2023/08/21 03:34:40;;;;;;;19.52;7.47;;;;;;;;;;5033632;28;20035;-78
2023/08/21 03:37:06;;;;;;;18.25;7.97;;;;;;;;;;5031722;28;20025;-77
2023/08/21 03:39:32;;;;;;;23.67;8.00;;;;;;;;;;5031082;28;20147;-78
2023/08/21 03:41:58;;;;;;;17.50;7.68;;;;;;;;;;5033291;28;20099;-78
2023/08/21 03:44:24;;;;;;;24.83;10.15;;;;;;;;;;5034773;28;20368;-76
2023/08/21 03:46:50;;;;;;;28.55;8.40;;;;;;;;;;5031941;28;20033;-74
2023/08/21 03:49:16;;;;;;;18.70;8.40;;;;;;;;;;5031725;28;20045;-74
2023/08/21 03:51:42;;;;;;;23.52;9.02;;;;;;;;;;5033345;28;20026;-76
2023/08/21 03:54:09;;;;;;;28.45;8.85;;;;;;;;;;5032506;28;20053;-75
2023/08/21 03:56:35;;;;;;;22.88;9.15;;;;;;;;;;5031852;28;20025;-74
2023/08/21 03:59:01;;;;;;;25.48;9.20;;;;;;;;;;5031896;28;20034;-74
2023/08/21 04:01:27;;;;;;;22.15;8.68;;;;;;;;;;5032130;28;20060;-74
2023/08/21 04:03:53;;;;;;;20.52;8.63;;;;;;;;;;5031642;28;20017;-74
2023/08/21 04:06:19;;;;;;;16.73;8.93;;;;;;;;;;5031796;28;20553;-75
2023/08/21 04:08:45;;;;;;;22.95;9.25;;;;;;;;;;5030300;28;20156;-74
2023/08/21 04:11:11;;;;;;;24.90;8.88;;;;;;;;;;5031577;28;20105;-74
2023/08/21 04:13:37;;;;;;;19.52;8.60;;;;;;;;;;5031050;28;20030;-75
2023/08/21 04:16:03;;;;;;;23.10;8.43;;;;;;;;;;5031467;28;20032;-74
2023/08/21 04:18:29;;;;;;;23.33;8.48;;;;;;;;;;5031785;28;20032;-75
2023/08/21 04:20:55;;;;;;;23.48;8.13;;;;;;;;;;5029865;28;20029;-78
2023/08/21 04:23:21;;;;;;;18.02;8.45;;;;;;;;;;5031515;28;20032;-74
2023/08/21 04:25:47;;;;;;;16.88;7.78;;;;;;;;;;5031225;28;20032;-73
2023/08/21 04:28:13;;;;;;;25.25;9.20;;;;;;;;;;5032764;28;20025;-74
2023/08/21 04:30:41;;;;;;;22.02;9.50;;;;;;;;;;5031330;28;20083;-75
2023/08/21 04:33:07;;;;;;;24.25;9.05;;;;;;;;;;5034708;28;20026;-74
2023/08/21 04:35:37;;;;;;;24.30;9.88;;;;;;;;;;5035478;28;20432;-74
2023/08/21 04:38:03;;;;;;;19.00;8.23;;;;;;;;;;5035361;28;20391;-74
2023/08/21 04:40:29;;;;;;;27.42;9.43;;;;;;;;;;5037728;28;20025;-74
2023/08/21 04:42:55;;;;;;;30.65;9.32;;;;;;;;;;5036229;28;20537;-74
2023/08/21 04:45:21;;;;;;;19.90;9.00;;;;;;;;;;5035383;28;20034;-74
2023/08/21 04:47:47;;;;;;;30.08;9.75;;;;;;;;;;5035637;28;20101;-73
2023/08/21 04:50:15;;;;;;;24.27;9.60;;;;;;;;;;5035488;28;20502;-74
2023/08/21 04:52:41;;;;;;;32.28;10.75;;;;;;;;;;5035140;28;20024;-72
2023/08/21 04:55:07;;;;;;;21.63;8.38;;;;;;;;;;5035193;28;20292;-71
2023/08/21 04:57:33;;;;;;;22.95;8.60;;;;;;;;;;5036534;28;20514;-74
2023/08/21 04:59:59;;;;;;;22.50;8.55;;;;;;;;;;5034509;28;20045;-75
2023/08/21 05:02:25;;;;;;;19.25;8.20;;;;;;;;;;5034686;28;20022;-75
2023/08/21 05:04:51;;;;;;;27.63;8.57;;;;;;;;;;5034667;28;20476;-74
2023/08/21 05:07:17;;;;;;;21.55;8.73;;;;;;;;;;5034521;28;20025;-75
2023/08/21 05:09:43;;;;;;;21.75;8.20;;;;;;;;;;5034231;28;20056;-72
2023/08/21 05:12:09;;;;;;;24.88;9.40;;;;;;;;;;5033736;28;20533;-73
2023/08/21 05:14:35;;;;;;;25.58;9.05;;;;;;;;;;5037466;28;20053;-75
2023/08/21 05:17:01;;;;;;;19.45;8.43;;;;;;;;;;5040914;28;20030;-73
2023/08/21 05:19:28;;;;;;;25.85;9.73;;;;;;;;;;5039720;28;20026;-74
2023/08/21 05:21:54;;;;;;;20.88;9.25;;;;;;;;;;5040975;28;20056;-75
2023/08/21 05:24:19;;;;;;;23.92;9.77;;;;;;;;;;5031708;28;20518;-74
2023/08/21 05:26:45;;;;;;;29.63;9.63;;;;;;;;;;5033799;28;20043;-75
2023/08/21 05:29:11;;;;;;;28.00;9.90;;;;;;;;;;5034621;28;20025;-76
2023/08/21 05:31:37;;;;;;;25.83;9.68;;;;;;;;;;5035388;28;20615;-74
2023/08/21 05:34:04;;;;;;;26.77;7.60;;;;;;;;;;5033257;28;20025;-77
2023/08/21 05:36:30;;;;;;;28.88;9.20;;;;;;;;;;5033636;28;20049;-74
2023/08/21 05:38:57;;;;;;;21.50;8.85;;;;;;;;;;5033424;28;20487;-75
2023/08/21 05:41:23;;;;;;;24.80;8.15;;;;;;;;;;5032728;28;20028;-78
2023/08/21 05:43:49;;;;;;;27.85;9.88;;;;;;;;;;5032328;28;20500;-76
2023/08/21 05:46:15;;;;;;;29.50;8.93;;;;;;;;;;5033025;28;20477;-75
2023/08/21 05:48:41;;;;;;;25.02;9.15;;;;;;;;;;5031976;28;20112;-72
2023/08/21 05:51:07;;;;;;;33.63;9.35;;;;;;;;;;5032627;28;20100;-74
2023/08/21 05:53:33;;;;;;;28.42;9.52;;;;;;;;;;5032919;28;20506;-73
2023/08/21 05:55:59;;;;;;;36.53;8.98;;;;;;;;;;5033826;28;20029;-73
2023/08/21 05:58:29;;;;;;;31.48;8.40;;;;;;;;;;5031619;28;20058;-73
2023/08/21 06:00:56;;;;;;;19.05;7.13;;;;;;;;;;5033971;28;20048;-75
2023/08/21 06:03:22;;;;;;;25.17;8.70;;;;;;;;;;5033085;28;20113;-73
2023/08/21 06:05:48;;;;;;;26.27;7.22;;;;;;;;;;5033568;28;20112;-72
2023/08/21 06:08:14;;;;;;;34.17;7.93;;;;;;;;;;5030743;28;20075;-73
2023/08/21 06:10:40;;;;;;;22.45;6.75;;;;;;;;;;5033329;28;20446;-73
2023/08/21 06:13:06;;;;;;;23.98;6.85;;;;;;;;;;5032598;28;20112;-74
2023/08/21 06:15:32;;;;;;;33.33;7.93;;;;;;;;;;5033968;28;20078;-74
2023/08/21 06:17:59;;;;;;;32.50;7.85;;;;;;;;;;5033555;28;20025;-75
2023/08/21 06:20:26;;;;;;;27.35;7.43;;;;;;;;;;5034341;28;20025;-76
2023/08/21 06:22:52;;;;;;;24.48;6.78;;;;;;;;;;5033775;28;20501;-77
2023/08/21 06:25:19;;;;;;;24.75;6.30;;;;;;;;;;5035460;28;20067;-76
2023/08/21 06:27:45;;;;;;;20.17;6.05;;;;;;;;;;5034770;28;20487;-78
2023/08/21 06:30:11;;;;;;;27.77;6.15;;;;;;;;;;5036013;28;20566;-78
2023/08/21 06:32:37;;;;;;;27.15;5.70;;;;;;;;;;5032200;28;20083;-77
2023/08/21 06:35:03;;;;;;;28.45;5.13;;;;;;;;;;5032743;28;20483;-76
2023/08/21 06:37:29;;;;;;;23.88;5.55;;;;;;;;;;5032473;28;20026;-76
2023/08/21 06:39:55;;;;;;;22.48;5.22;;;;;;;;;;5034108;28;20390;-75
2023/08/21 06:42:21;;;;;;;31.33;7.90;;;;;;;;;;5032649;28;20021;-75
2023/08/21 06:44:47;;;;;;;19.02;6.53;;;;;;;;;;5034099;28;20057;-76
2023/08/21 06:47:13;;;;;;;19.35;6.22;;;;;;;;;;5035120;28;20033;-75
2023/08/21 06:49:39;;;;;;;22.20;5.07;;;;;;;;;;5035372;28;20032;-74
2023/08/21 06:52:05;;;;;;;25.75;5.35;;;;;;;;;;5034349;28;20021;-75
2023/08/21 06:54:31;;;;;;;24.48;5.88;;;;;;;;;;5033883;28;20025;-74
2023/08/21 06:56:58;;;;;;;29.45;4.70;;;;;;;;;;5036766;28;20041;-79
2023/08/21 06:59:24;;;;;;;31.65;8.05;;;;;;;;;;5045517;28;20040;-74
2023/08/21 07:01:51;;;;;;;25.90;8.88;;;;;;;;;;5053494;28;20032;-77
2023/08/21 07:04:17;;;;;;;37.97;11.40;;;;;;;;;;5051274;28;20637;-76
2023/08/21 07:06:43;;;;;;;29.48;9.52;;;;;;;;;;5041910;28;20033;-75
2023/08/21 07:09:09;;;;;;;22.88;7.00;;;;;;;;;;5031529;28;20052;-75
2023/08/21 07:11:36;;;;;;;17.65;4.03;;;;;;;;;;5031504;28;20017;-74
2023/08/21 07:14:02;;;;;;;22.85;5.63;;;;;;;;;;5031844;28;20087;-74
2023/08/21 07:16:28;;;;;;;37.75;13.05;;;;;;;;;;5033141;28;20495;-74
2023/08/21 07:18:54;;;;;;;32.25;8.38;;;;;;;;;;5032312;28;20071;-76
2023/08/21 07:21:20;;;;;;;18.70;3.72;;;;;;;;;;5031728;28;20033;-74
2023/08/21 07:23:46;;;;;;;43.10;13.70;;;;;;;;;;5032110;28;20033;-74
2023/08/21 07:26:12;;;;;;;21.30;3.70;;;;;;;;;;5032589;28;20040;-75
2023/08/21 07:28:38;;;;;;;24.88;7.30;;;;;;;;;;5032326;28;20116;-77
2023/08/21 07:31:04;;;;;;;22.08;4.70;;;;;;;;;;5031953;28;20032;-73
2023/08/21 07:33:30;;;;;;;15.52;3.78;;;;;;;;;;5032501;28;20018;-74
2023/08/21 07:36:03;;;;;;;26.88;3.97;;;;;;;;;;5033857;28;20033;-74
2023/08/21 07:38:29;;;;;;;29.08;9.82;;;;;;;;;;5031450;28;20030;-73
2023/08/21 07:41:11;;;;;;;22.58;5.85;;;;;;;;;;5031974;28;20097;-73
2023/08/21 07:43:38;;;;;;;13.50;3.10;;;;;;;;;;5031920;28;20384;-74
2023/08/21 07:46:04;;;;;;;19.08;4.50;;;;;;;;;;5034798;28;20037;-74
2023/08/21 07:48:30;;;;;;;16.52;3.97;;;;;;;;;;5032760;28;20057;-75
2023/08/21 07:50:56;;;;;;;15.32;3.63;;;;;;;;;;5032200;28;20033;-74
2023/08/21 07:53:23;;;;;;;20.00;5.10;;;;;;;;;;5032271;28;20033;-78
2023/08/21 07:55:49;;;;;;;14.50;2.80;;;;;;;;;;5032411;28;20026;-76
2023/08/21 07:58:15;;;;;;;19.42;3.47;;;;;;;;;;5032263;28;20104;-75
2023/08/21 08:00:42;;;;;;;12.73;2.95;;;;;;;;;;5033459;28;20041;-74
2023/08/21 08:03:08;;;;;;;12.40;2.33;;;;;;;;;;5032492;28;20064;-75
2023/08/21 08:05:34;;;;;;;13.27;2.47;;;;;;;;;;5033512;28;20026;-75
2023/08/21 08:08:01;;;;;;;11.60;2.03;;;;;;;;;;5034831;28;20028;-76
2023/08/21 08:10:27;;;;;;;14.95;2.65;;;;;;;;;;5035978;28;20068;-76
2023/08/21 08:12:54;;;;;;;13.68;2.30;;;;;;;;;;5035607;28;20422;-75
2023/08/21 08:15:20;;;;;;;14.88;2.72;;;;;;;;;;5035163;28;20030;-73
2023/08/21 08:17:46;;;;;;;20.73;2.80;;;;;;;;;;5034956;28;20029;-73
2023/08/21 08:20:14;;;;;;;11.23;3.15;;;;;;;;;;5035220;28;20024;-73
2023/08/21 08:22:42;;;;;;;14.63;2.97;;;;;;;;;;5034825;28;20163;-76
2023/08/21 08:25:08;;;;;;;11.20;2.30;;;;;;;;;;5035080;28;20542;-76
2023/08/21 08:27:34;;;;;;;10.20;2.17;;;;;;;;;;5035307;28;20017;-75
2023/08/21 08:30:00;;;;;;;11.40;2.00;;;;;;;;;;5035514;28;20032;-75
2023/08/21 08:32:27;;;;;;;12.88;2.47;;;;;;;;;;5035367;28;20021;-75
2023/08/21 08:34:53;;;;;;;9.68;1.85;;;;;;;;;;5045528;28;20040;-75
2023/08/21 08:37:19;;;;;;;9.75;2.08;;;;;;;;;;5048687;28;20398;-76
2023/08/21 08:39:48;;;;;;;14.95;3.08;;;;;;;;;;5036738;28;20029;-74
2023/08/21 08:42:15;;;;;;;10.27;1.80;;;;;;;;;;5036301;28;20087;-75
2023/08/21 08:44:41;;;;;;;10.70;2.40;;;;;;;;;;5045923;28;20072;-75
2023/08/21 08:47:11;;;;;;;7.53;2.17;;;;;;;;;;5060017;28;20041;-74
2023/08/21 08:49:37;;;;;;;12.05;1.98;;;;;;;;;;5058268;28;20034;-74
2023/08/21 08:52:04;;;;;;;9.10;1.98;;;;;;;;;;5057774;28;20085;-75
2023/08/21 08:54:30;;;;;;;9.65;1.67;;;;;;;;;;5041267;28;20415;-74
2023/08/21 08:56:57;;;;;;;11.80;2.35;;;;;;;;;;5036407;28;20025;-76
2023/08/21 08:59:23;;;;;;;10.48;1.50;;;;;;;;;;5036362;28;20048;-76
2023/08/21 09:01:49;;;;;;;6.32;1.63;;;;;;;;;;5034096;28;20479;-74
2023/08/21 09:04:15;;;;;;;9.98;2.00;;;;;;;;;;5035659;28;20041;-75
2023/08/21 09:06:41;;;;;;;11.30;2.08;;;;;;;;;;5035120;28;20505;-75
2023/08/21 09:09:07;;;;;;;7.63;1.80;;;;;;;;;;5035426;28;20113;-77
2023/08/21 09:11:34;;;;;;;9.25;1.60;;;;;;;;;;5035034;28;20094;-75
2023/08/21 09:14:00;;;;;;;16.08;1.95;;;;;;;;;;5034741;28;20033;-74
2023/08/21 09:16:26;;;;;;;7.32;1.80;;;;;;;;;;5034986;28;20028;-76
2023/08/21 09:18:57;;;;;;;8.13;1.88;;;;;;;;;;5033176;28;20049;-75
2023/08/21 09:21:24;;;;;;;7.95;1.92;;;;;;;;;;5033938;28;20029;-75
2023/08/21 09:23:56;;;;;;;16.35;2.65;;;;;;;;;;5034239;28;20053;-76
2023/08/21 09:26:23;;;;;;;11.13;1.98;;;;;;;;;;5034316;28;20029;-74
2023/08/21 09:28:49;;;;;;;12.88;2.97;;;;;;;;;;5034684;28;20021;-77
2023/08/21 09:31:16;;;;;;;17.42;2.42;;;;;;;;;;5034159;28;20047;-73
2023/08/21 09:33:42;;;;;;;10.73;1.67;;;;;;;;;;5035197;28;20020;-75
2023/08/21 09:36:11;;;;;;;9.30;2.00;;;;;;;;;;5033713;28;20033;-75
2023/08/21 09:38:40;;;;;;;9.20;1.88;;;;;;;;;;5034262;28;20032;-76
2023/08/21 09:41:07;;;;;;;8.30;2.00;;;;;;;;;;5033112;28;20051;-75
2023/08/21 09:43:41;;;;;;;6.82;1.83;;;;;;;;;;5033366;28;20029;-76
2023/08/21 09:46:07;;;;;;;10.35;2.63;;;;;;;;;;5033945;28;20032;-76
2023/08/21 09:48:33;;;;;;;9.73;1.80;;;;;;;;;;5033548;28;20029;-75
2023/08/21 09:51:03;;;;;;;12.82;1.85;;;;;;;;;;5033767;28;20079;-74
2023/08/21 09:53:30;;;;;;;9.25;2.15;;;;;;;;;;5033125;28;20026;-76
2023/08/21 09:55:56;;;;;;;8.07;1.95;;;;;;;;;;5033181;28;20033;-75
2023/08/21 09:58:22;;;;;;;11.77;1.60;;;;;;;;;;5033231;28;20087;-75
2023/08/21 10:00:49;;;;;;;11.57;1.90;;;;;;;;;;5033418;28;20100;-76
2023/08/21 10:03:18;;;;;;;12.07;2.00;;;;;;;;;;5034374;28;20030;-74
2023/08/21 10:05:45;;;;;;;9.30;2.10;;;;;;;;;;5035417;28;20511;-74
2023/08/21 10:08:12;;;;;;;8.77;1.88;;;;;;;;;;5034400;28;20021;-74
2023/08/21 10:10:38;;;;;;;8.57;2.00;;;;;;;;;;5034378;28;20487;-74
2023/08/21 10:13:05;;;;;;;8.27;1.73;;;;;;;;;;5035100;28;20017;-74
2023/08/21 10:15:33;;;;;;;6.47;1.42;;;;;;;;;;5037850;28;20029;-75
2023/08/21 10:17:59;;;;;;;8.63;1.73;;;;;;;;;;5035722;28;20033;-74
2023/08/21 10:20:26;;;;;;;11.23;1.98;;;;;;;;;;5035917;28;20111;-74
2023/08/21 10:22:56;;;;;;;6.18;1.50;;;;;;;;;;5034866;28;20192;-74
2023/08/21 10:25:23;;;;;;;15.13;2.03;;;;;;;;;;5033447;28;20040;-73
2023/08/21 10:27:52;;;;;;;11.30;1.83;;;;;;;;;;5037942;28;20025;-73
2023/08/21 10:30:25;;;;;;;12.30;2.28;;;;;;;;;;5053435;28;20048;-74
2023/08/21 10:32:52;;;;;;;8.85;1.88;;;;;;;;;;5056669;28;20090;-72
2023/08/21 10:35:19;;;;;;;10.90;1.63;;;;;;;;;;5054825;28;20089;-73
2023/08/21 10:38:04;;;;;;;11.23;1.98;;;;;;;;;;5046761;28;20034;-75
2023/08/21 10:40:30;;;;;;;;;;;;;;;;;;5036076;28;20036;-74
2023/08/21 10:42:56;;;;;;;7.88;1.60;;;;;;;;;;5033005;28;19905;-74
2023/08/21 10:45:22;;;;;;;9.50;1.88;;;;;;;;;;5032751;28;20029;-75
2023/08/21 10:47:50;;;;;;;13.93;2.08;;;;;;;;;;5032644;28;20029;-73
2023/08/21 10:50:16;;;;;;;8.73;1.77;;;;;;;;;;5032902;28;20052;-75
2023/08/21 10:52:45;;;;;;;12.57;2.35;;;;;;;;;;5033138;28;20025;-74
2023/08/21 10:55:12;;;;;;;9.95;2.00;;;;;;;;;;5035557;28;20071;-74
2023/08/21 10:57:38;;;;;;;12.68;2.28;;;;;;;;;;5035769;28;20438;-74
2023/08/21 11:00:14;;;;;;;6.82;2.08;;;;;;;;;;5033529;28;20021;-74
2023/08/21 11:02:41;;;;;;;11.75;2.35;;;;;;;;;;5032115;28;20045;-75
2023/08/21 11:05:08;;;;;;;13.88;3.17;;;;;;;;;;5032928;28;20048;-74
2023/08/21 11:07:38;;;;;;;12.75;5.13;;;;;;;;;;5035368;28;20021;-75
2023/08/21 11:10:05;;;;;;;8.73;2.10;;;;;;;;;;5037068;28;20101;-75
2023/08/21 11:12:31;;;;;;;9.23;2.00;;;;;;;;;;5040998;28;20025;-73
2023/08/21 11:14:57;;;;;;;14.95;1.88;;;;;;;;;;5050650;28;20125;-73
2023/08/21 11:17:23;;;;;;;6.45;2.00;;;;;;;;;;5053765;28;20041;-75
2023/08/21 11:19:49;;;;;;;10.07;1.90;;;;;;;;;;5045305;28;20038;-74
2023/08/21 11:22:16;;;;;;;9.38;1.85;;;;;;;;;;5042461;28;20021;-76
2023/08/21 11:24:42;;;;;;;7.72;2.28;;;;;;;;;;5044377;28;20034;-74
2023/08/21 11:27:12;;;;;;;10.15;1.70;;;;;;;;;;5048781;28;20104;-75
2023/08/21 11:29:39;;;;;;;7.75;1.52;;;;;;;;;;5037312;28;20465;-74
2023/08/21 11:32:09;;;;;;;9.07;1.95;;;;;;;;;;5032747;28;20064;-74
2023/08/21 11:34:35;;;;;;;6.78;1.88;;;;;;;;;;5031511;28;20083;-75
2023/08/21 11:37:01;;;;;;;7.03;1.55;;;;;;;;;;5031944;28;20029;-73
2023/08/21 11:39:30;;;;;;;7.35;1.52;;;;;;;;;;5031598;28;20026;-73
2023/08/21 11:41:59;;;;;;;8.35;1.60;;;;;;;;;;5030575;28;20545;-74
2023/08/21 11:44:25;;;;;;;7.57;1.77;;;;;;;;;;5031813;28;20026;-75
2023/08/21 11:46:55;;;;;;;3.20;1.10;;;;;;;;;;5031693;28;20026;-76
2023/08/21 11:49:23;;;;;;;6.97;1.30;;;;;;;;;;5030504;28;20021;-75
2023/08/21 11:51:49;;;;;;;8.90;1.33;;;;;;;;;;5030395;28;20022;-73
2023/08/21 11:54:18;;;;;;;5.57;1.00;;;;;;;;;;5036578;28;20541;-76
2023/08/21 11:56:44;;;;;;;6.20;1.27;;;;;;;;;;5051136;28;20577;-74
2023/08/21 11:59:10;;;;;;;11.05;1.60;;;;;;;;;;5046417;28;20117;-73
2023/08/21 12:01:36;;;;;;;9.48;1.52;;;;;;;;;;5031857;28;20036;-73
2023/08/21 12:04:15;;;;;;;5.00;1.33;;;;;;;;;;5031207;28;20414;-75
2023/08/21 12:06:44;;;;;;;5.70;1.33;;;;;;;;;;5031649;28;20450;-74
2023/08/21 12:09:10;;;;;;;7.07;1.60;;;;;;;;;;5031512;28;20026;-73
2023/08/21 12:11:38;;;;;;;10.75;1.70;;;;;;;;;;5032830;28;20025;-74
2023/08/21 12:14:04;;;;;;;11.18;1.50;;;;;;;;;;5048421;28;20013;-75
2023/08/21 12:16:30;;;;;;;6.78;1.70;;;;;;;;;;5044720;28;20041;-75
2023/08/21 12:18:59;;;;;;;4.18;1.08;;;;;;;;;;5031409;28;20032;-74
2023/08/21 12:21:25;;;;;;;6.40;1.23;;;;;;;;;;5031062;28;20026;-75
2023/08/21 12:23:51;;;;;;;7.55;1.60;;;;;;;;;;5034725;28;20070;-74
2023/08/21 12:26:20;;;;;;;3.10;1.13;;;;;;;;;;5031451;28;20116;-76
2023/08/21 12:28:50;;;;;;;12.02;1.92;;;;;;;;;;5031556;28;20026;-76
2023/08/21 12:31:16;;;;;;;5.88;1.73;;;;;;;;;;5032047;28;20036;-76
2023/08/21 12:33:42;;;;;;;4.72;1.20;;;;;;;;;;5031422;28;20104;-75
2023/08/21 12:36:11;;;;;;;8.27;1.58;;;;;;;;;;5031648;28;20049;-75
2023/08/21 12:38:37;;;;;;;6.13;1.40;;;;;;;;;;5031439;28;20025;-75
2023/08/21 12:41:03;;;;;;;4.90;1.63;;;;;;;;;;5031384;28;20028;-76
2023/08/21 12:43:29;;;;;;;5.15;2.05;;;;;;;;;;5030769;28;20116;-76
2023/08/21 12:45:55;;;;;;;4.50;1.40;;;;;;;;;;5032548;28;20493;-75
2023/08/21 12:48:21;;;;;;;5.90;1.38;;;;;;;;;;5032029;28;20048;-74
2023/08/21 12:50:47;;;;;;;6.93;1.40;;;;;;;;;;5031409;28;20468;-76
2023/08/21 12:53:13;;;;;;;3.22;1.20;;;;;;;;;;5031043;28;20135;-74
2023/08/21 12:55:39;;;;;;;3.17;1.15;;;;;;;;;;5034938;28;20387;-74
2023/08/21 12:58:05;;;;;;;5.22;1.23;;;;;;;;;;5034494;28;20029;-75
2023/08/21 13:00:35;;;;;;;4.13;1.48;;;;;;;;;;5034909;28;20029;-74
2023/08/21 13:03:01;;;;;;;8.50;1.67;;;;;;;;;;5034776;28;20582;-75
2023/08/21 13:05:27;;;;;;;6.43;1.40;;;;;;;;;;5034175;28;20048;-74
2023/08/21 13:07:53;;;;;;;6.35;1.10;;;;;;;;;;5034225;28;20021;-74
2023/08/21 13:10:19;;;;;;;3.33;1.73;;;;;;;;;;5034076;28;20439;-75
2023/08/21 13:12:45;;;;;;;7.35;1.70;;;;;;;;;;5034426;28;20032;-75
2023/08/21 13:15:11;;;;;;;6.22;1.20;;;;;;;;;;5034625;28;20198;-75
2023/08/21 13:17:37;;;;;;;8.43;1.88;;;;;;;;;;5035600;28;20471;-76
2023/08/21 13:20:03;;;;;;;5.20;1.60;;;;;;;;;;5037401;28;20025;-73
2023/08/21 13:22:29;;;;;;;7.32;2.72;;;;;;;;;;5035034;28;20113;-75
2023/08/21 13:24:55;;;;;;;7.13;2.72;;;;;;;;;;5035160;28;20056;-74
2023/08/21 13:27:21;;;;;;;3.53;1.52;;;;;;;;;;5035784;28;20033;-76
2023/08/21 13:29:47;;;;;;;4.13;1.23;;;;;;;;;;5037067;28;20025;-77
2023/08/21 13:32:13;;;;;;;4.93;1.40;;;;;;;;;;5035960;28;20022;-77
2023/08/21 13:34:39;;;;;;;4.10;1.20;;;;;;;;;;5036865;28;20037;-77
2023/08/21 13:37:05;;;;;;;5.32;0.73;;;;;;;;;;5035389;28;20100;-75
2023/08/21 13:39:31;;;;;;;6.90;1.40;;;;;;;;;;5034828;28;20391;-76
2023/08/21 13:41:57;;;;;;;4.70;1.45;;;;;;;;;;5033997;28;20025;-74
2023/08/21 13:44:23;;;;;;;3.53;1.55;;;;;;;;;;5033958;28;20028;-74
2023/08/21 13:46:49;;;;;;;4.68;1.40;;;;;;;;;;5034321;28;20209;-74
2023/08/21 13:49:15;;;;;;;4.40;1.38;;;;;;;;;;5034291;28;20028;-74
2023/08/21 13:51:41;;;;;;;6.03;2.30;;;;;;;;;;5034216;28;20026;-75
2023/08/21 13:54:08;;;;;;;3.67;1.58;;;;;;;;;;5034825;28;20377;-75
2023/08/21 13:56:34;;;;;;;4.15;1.33;;;;;;;;;;5035477;28;20021;-75
2023/08/21 13:59:00;;;;;;;3.92;1.20;;;;;;;;;;5040118;28;20069;-74
2023/08/21 14:01:26;;;;;;;3.47;1.33;;;;;;;;;;5036221;28;20109;-75
2023/08/21 14:03:52;;;;;;;3.78;1.40;;;;;;;;;;5038468;28;20425;-74
2023/08/21 14:06:18;;;;;;;3.60;1.20;;;;;;;;;;5038025;28;20021;-74
2023/08/21 14:08:44;;;;;;;4.13;1.33;;;;;;;;;;5031967;28;20021;-76
2023/08/21 14:11:10;;;;;;;20.40;2.78;;;;;;;;;;5033518;28;20055;-75
2023/08/21 14:13:36;;;;;;;3.95;1.55;;;;;;;;;;5031816;28;20176;-76
2023/08/21 14:16:02;;;;;;;3.25;1.27;;;;;;;;;;5032061;28;20026;-75
2023/08/21 14:18:28;;;;;;;3.85;1.33;;;;;;;;;;5032308;28;20039;-75
2023/08/21 14:20:54;;;;;;;3.25;1.60;;;;;;;;;;5031085;28;20029;-74
2023/08/21 14:23:20;;;;;;;3.40;1.42;;;;;;;;;;5030892;28;20025;-74
2023/08/21 14:25:46;;;;;;;4.55;1.73;;;;;;;;;;5031463;28;20430;-76
2023/08/21 14:28:12;;;;;;;7.82;1.80;;;;;;;;;;5031748;28;20076;-76
2023/08/21 14:30:39;;;;;;;4.65;1.65;;;;;;;;;;5031918;28;20483;-74